ADDS METAR Data INFO
IDs: Format: Raw Decoded Include TAF

Data at: 0057 UTC 21 Oct 2017

KSTL 210051Z 15013KT 10SM FEW100 SCT150 OVC250 22/10 A3005 RMK AO2 SLP173 T02170100
KSTL 202351Z 16011KT 10SM FEW100 BKN150 OVC250 22/10 A3006 RMK AO2 SLP174 T02220100 10244 20222 55008
KSTL 202251Z 14013KT 10SM FEW100 SCT150 BKN250 23/11 A3005 RMK AO2 SLP171 T02280106
KSTL 202151Z 14012KT 10SM SCT150 BKN250 23/10 A3006 RMK AO2 SLP174 T02330100
KSTL 202051Z 15012KT 10SM FEW150 BKN250 23/10 A3008 RMK AO2 SLP180 T02330100 56023
KSTL 201951Z 13010KT 10SM FEW150 BKN250 24/10 A3009 RMK AO2 SLP184 T02390100
KSTL 201851Z 15009KT 10SM BKN250 24/10 A3012 RMK AO2 SLP192 T02390100
KSTL 201751Z 13007KT 10SM BKN250 23/11 A3015 RMK AO2 SLP202 T02280106 10228 20111 58025
KSTL 201651Z 18008KT 10SM BKN250 22/11 A3019 RMK AO2 SLP216 T02170111
KSTL 201551Z 17005KT 10SM BKN250 20/11 A3021 RMK AO2 SLP224 T02000111 $
KSTL 201451Z 14007KT 10SM BKN250 18/12 A3023 RMK AO2 SLP230 T01830117 50005
KSTL 201351Z 11005KT 7SM SCT250 14/12 A3023 RMK AO2 SLP232 T01440122
KSTL 201251Z 00000KT 7SM BKN250 12/11 A3022 RMK AO2 SLP228 T01170106
KSTL 201151Z 00000KT 8SM SCT250 12/10 A3021 RMK AO2 SLP227 T01170100 10172 20111 53013
KSTL 201051Z 11004KT 8SM FEW250 12/10 A3020 RMK AO2 SLP219 T01170100
KSTL 200951Z 12004KT 9SM SCT250 12/10 A3018 RMK AO2 SLP213 T01220100
KSTL 200851Z 16004KT 10SM FEW250 15/11 A3017 RMK AO2 SLP209 T01500106 53005
KSTL 200751Z 18003KT 10SM FEW250 14/10 A3016 RMK AO2 SLP206 T01440100
KSTL 200651Z 17004KT 10SM FEW250 17/11 A3016 RMK AO2 SLP206 T01670106
KSTL 200551Z 19003KT 10SM FEW250 17/11 A3016 RMK AO2 SLP204 T01720106 10222 20172 402670122 50000
KSTL 200451Z 18006KT 10SM FEW250 18/10 A3016 RMK AO2 SLP204 T01780100
KSTL 200351Z 17007KT 10SM FEW250 19/10 A3016 RMK AO2 SLP204 T01940100
KSTL 200251Z 16006KT 10SM FEW250 20/11 A3015 RMK AO2 SLP205 T02000106 52003
KSTL 200151Z 15009KT 10SM FEW250 21/10 A3015 RMK AO2 SLP202 T02110100
KSTL 200051Z 14008KT 10SM FEW250 21/11 A3015 RMK AO2 SLP206 T02060111
KSTL 192351Z 09004KT 10SM FEW250 21/11 A3014 RMK AO2 SLP203 T02060106 10267 20206 53000
KSTL 192251Z 13006KT 10SM FEW250 24/11 A3014 RMK AO2 SLP202 T02390111
KSTL 192151Z 17005KT 10SM CLR 26/11 A3014 RMK AO2 SLP198 T02610106
KSTL 192051Z 15007KT 10SM CLR 26/10 A3014 RMK AO2 SLP200 T02610100 56015
KSTL 191951Z VRB03KT 10SM CLR 26/09 A3015 RMK AO2 SLP204 T02610094
KSTL 191851Z 00000KT 10SM FEW250 25/11 A3017 RMK AO2 SLP209 T02500106
KSTL 191751Z 24006KT 10SM FEW250 24/10 A3019 RMK AO2 SLP216 T02390100 10244 20128 58002
KSTL 191651Z 30007KT 10SM FEW250 23/10 A3020 RMK AO2 SLP221 T02330100
KSTL 191551Z 22005KT 10SM FEW250 21/11 A3020 RMK AO2 SLP221 T02110106
KSTL 191451Z 22007KT 10SM FEW250 18/11 A3020 RMK AO2 SLP220 T01830111 51013
KSTL 191351Z 22008KT 10SM FEW250 16/11 A3019 RMK AO2 SLP217 T01610106